createdAt,value
2022-11-28T00:01:34.575Z,3.90
2022-11-28T00:04:02.090Z,4.30
2022-11-28T00:06:29.838Z,4.00
2022-11-28T00:09:00.379Z,3.90
2022-11-28T00:11:27.574Z,4.00
2022-11-28T00:13:55.557Z,3.90
2022-11-28T00:16:24.988Z,3.90
2022-11-28T00:18:54.956Z,3.90
2022-11-28T00:21:24.818Z,3.90
2022-11-28T00:23:52.448Z,3.90
2022-11-28T00:26:23.342Z,4.20
2022-11-28T00:28:51.028Z,4.10
2022-11-28T00:31:27.158Z,3.80
2022-11-28T00:33:55.071Z,3.90
2022-11-28T00:36:23.236Z,4.10
2022-11-28T00:38:51.398Z,4.30
2022-11-28T00:41:24.402Z,4.10
2022-11-28T00:43:52.531Z,4.10
2022-11-28T00:46:21.846Z,4.10
2022-11-28T00:48:49.317Z,4.10
2022-11-28T00:51:30.399Z,4.00
2022-11-28T00:54:07.715Z,4.00
2022-11-28T00:56:40.590Z,4.10
2022-11-28T00:59:08.447Z,3.90
2022-11-28T01:01:41.482Z,3.90
2022-11-28T01:04:12.604Z,3.80
2022-11-28T01:06:45.637Z,3.80
2022-11-28T01:09:20.998Z,3.90
2022-11-28T01:11:50.272Z,3.80
2022-11-28T01:14:21.125Z,3.80
2022-11-28T01:16:49.185Z,4.00
2022-11-28T01:19:16.729Z,4.00
2022-11-28T01:21:44.380Z,3.70
2022-11-28T01:24:11.912Z,3.60
2022-11-28T01:26:40.366Z,3.70
2022-11-28T01:29:08.393Z,3.40
2022-11-28T01:31:36.038Z,3.70
2022-11-28T01:34:03.118Z,3.50
2022-11-28T01:36:31.561Z,3.40
2022-11-28T01:38:58.814Z,3.50
2022-11-28T01:41:28.159Z,3.40
2022-11-28T01:44:06.833Z,3.30
2022-11-28T01:46:35.730Z,3.30
2022-11-28T01:49:17.895Z,3.30
2022-11-28T01:51:51.047Z,3.30
2022-11-28T01:54:22.588Z,3.30
2022-11-28T01:57:04.678Z,3.30
2022-11-28T01:59:39.430Z,3.40
2022-11-28T02:02:15.762Z,3.40
2022-11-28T02:04:43.437Z,3.30
2022-11-28T02:07:10.860Z,3.30
2022-11-28T02:09:37.816Z,3.40
2022-11-28T02:12:23.260Z,3.40
2022-11-28T02:15:21.257Z,3.40
2022-11-28T02:18:20.418Z,3.50
2022-11-28T02:21:03.202Z,3.60
2022-11-28T02:23:48.070Z,3.40
2022-11-28T02:27:07.368Z,3.50
2022-11-28T02:30:01.636Z,3.40
2022-11-28T02:33:13.836Z,3.50
2022-11-28T02:36:05.803Z,3.30
2022-11-28T02:38:59.992Z,3.50
2022-11-28T02:41:52.182Z,3.40
2022-11-28T02:44:26.091Z,3.30
2022-11-28T02:47:03.648Z,3.40
2022-11-28T02:49:37.332Z,3.30
2022-11-28T02:52:13.382Z,3.30
2022-11-28T02:54:42.961Z,3.40
2022-11-28T02:57:10.911Z,3.40
2022-11-28T02:59:37.836Z,3.40
2022-11-28T03:02:25.773Z,3.40
2022-11-28T03:05:21.550Z,3.40
2022-11-28T03:08:19.705Z,3.70
2022-11-28T03:11:27.018Z,3.40
2022-11-28T03:14:08.376Z,3.40
2022-11-28T03:16:58.857Z,3.60
2022-11-28T03:19:39.156Z,3.40
2022-11-28T03:22:28.005Z,3.40
2022-11-28T03:25:32.860Z,3.40
2022-11-28T03:28:12.279Z,3.50
2022-11-28T03:30:58.728Z,3.50
2022-11-28T03:33:33.671Z,3.40
2022-11-28T03:36:19.653Z,3.40
2022-11-28T03:38:54.391Z,3.30
2022-11-28T03:42:02.416Z,3.40
2022-11-28T03:44:41.551Z,3.50
2022-11-28T03:47:10.265Z,3.40
2022-11-28T03:49:51.043Z,3.50
2022-11-28T03:52:42.518Z,3.60
2022-11-28T03:55:52.481Z,3.20
2022-11-28T03:58:43.711Z,3.40
2022-11-28T04:01:16.601Z,3.00
2022-11-28T04:04:00.391Z,3.30
2022-11-28T04:06:54.882Z,3.00
2022-11-28T04:09:47.637Z,2.90
2022-11-28T04:12:31.465Z,2.80
2022-11-28T04:15:46.021Z,2.90
2022-11-28T04:18:25.499Z,3.00
2022-11-28T04:21:06.798Z,2.80
2022-11-28T04:23:38.252Z,2.90
2022-11-28T04:26:15.197Z,2.70
2022-11-28T04:28:44.058Z,2.90
2022-11-28T04:31:11.579Z,2.80
2022-11-28T04:33:47.292Z,3.00
2022-11-28T04:36:20.535Z,3.00
2022-11-28T04:38:56.415Z,2.70
2022-11-28T04:41:40.668Z,2.90
2022-11-28T04:44:28.291Z,2.90
2022-11-28T04:46:57.656Z,2.80
2022-11-28T04:49:28.488Z,3.00
2022-11-28T04:52:10.135Z,2.70
2022-11-28T04:55:00.837Z,3.00
2022-11-28T04:57:37.742Z,2.70
2022-11-28T05:00:10.747Z,3.10
2022-11-28T05:02:40.879Z,3.10
2022-11-28T05:05:19.113Z,3.20
2022-11-28T05:07:46.336Z,2.70
2022-11-28T05:10:15.233Z,2.90
2022-11-28T05:12:43.040Z,2.80
2022-11-28T05:15:11.387Z,2.90
2022-11-28T05:17:42.140Z,2.80
2022-11-28T05:20:10.376Z,2.60
2022-11-28T05:22:37.544Z,2.60
2022-11-28T05:25:05.034Z,2.60
2022-11-28T05:27:32.317Z,2.60
2022-11-28T05:29:59.383Z,2.40
2022-11-28T05:32:30.227Z,2.60
2022-11-28T05:34:57.804Z,2.80
2022-11-28T05:37:25.604Z,2.50
2022-11-28T05:39:52.830Z,2.50
2022-11-28T05:42:20.328Z,2.40
2022-11-28T05:44:56.527Z,2.60
2022-11-28T05:47:25.279Z,2.70
2022-11-28T05:49:52.455Z,2.30
2022-11-28T05:52:19.426Z,2.50
2022-11-28T05:54:46.388Z,2.60
2022-11-28T05:57:13.368Z,2.70
2022-11-28T05:59:40.723Z,2.50
2022-11-28T06:02:08.161Z,2.60
2022-11-28T06:04:36.330Z,2.50
2022-11-28T06:07:03.462Z,2.60
2022-11-28T06:09:30.521Z,2.60
2022-11-28T06:11:57.567Z,2.70
2022-11-28T06:14:24.750Z,2.90
2022-11-28T06:16:51.740Z,3.00
2022-11-28T06:19:18.948Z,2.70
2022-11-28T06:21:46.190Z,2.50
2022-11-28T06:24:13.201Z,3.00
2022-11-28T06:26:40.261Z,2.80
2022-11-28T06:29:07.357Z,2.90
2022-11-28T06:31:34.438Z,2.90
2022-11-28T06:34:01.687Z,3.00
2022-11-28T06:36:30.705Z,2.80
2022-11-28T06:38:58.428Z,2.80
2022-11-28T06:41:25.455Z,3.00
2022-11-28T06:43:52.561Z,2.70
2022-11-28T06:46:21.796Z,2.90
2022-11-28T06:48:52.285Z,2.90
2022-11-28T06:51:20.523Z,2.90
2022-11-28T06:53:48.533Z,3.30
2022-11-28T06:56:19.261Z,3.10
2022-11-28T06:58:47.477Z,3.20
2022-11-28T07:01:19.003Z,3.20
2022-11-28T07:03:47.788Z,3.00
2022-11-28T07:06:19.233Z,3.30
2022-11-28T07:08:47.795Z,3.30
2022-11-28T07:11:27.981Z,3.40
2022-11-28T07:13:56.227Z,3.30
2022-11-28T07:16:27.300Z,3.60
2022-11-28T07:18:55.676Z,3.60
2022-11-28T07:21:22.885Z,4.00
2022-11-28T07:23:50.530Z,3.80
2022-11-28T07:26:21.416Z,3.80
2022-11-28T07:28:50.136Z,4.10
2022-11-28T07:31:26.708Z,4.10
2022-11-28T07:33:53.959Z,4.50
2022-11-28T07:36:24.872Z,4.40
2022-11-28T07:38:59.281Z,4.30
2022-11-28T07:41:27.830Z,4.30
2022-11-28T07:43:58.991Z,4.70
2022-11-28T07:46:28.820Z,4.20
2022-11-28T07:48:56.652Z,4.60
2022-11-28T07:51:28.553Z,4.60
2022-11-28T07:53:56.413Z,4.40
2022-11-28T07:56:35.108Z,4.50
2022-11-28T07:59:12.500Z,4.30
2022-11-28T08:01:39.937Z,4.50
2022-11-28T08:04:09.535Z,4.70
2022-11-28T08:06:41.192Z,4.60
2022-11-28T08:09:09.628Z,4.50
2022-11-28T08:11:36.681Z,4.70
2022-11-28T08:14:05.618Z,4.60
2022-11-28T08:16:32.935Z,4.70
2022-11-28T08:19:03.949Z,4.70
2022-11-28T08:21:33.450Z,4.90
2022-11-28T08:24:02.894Z,5.10
2022-11-28T08:26:32.387Z,4.70
2022-11-28T08:29:01.491Z,4.80
2022-11-28T08:31:35.466Z,5.00
2022-11-28T08:34:07.801Z,4.80
2022-11-28T08:36:35.128Z,4.70
2022-11-28T08:39:22.722Z,4.70
2022-11-28T08:41:50.668Z,4.80
2022-11-28T08:44:17.703Z,4.50
2022-11-28T08:46:44.639Z,4.70
2022-11-28T08:49:11.609Z,4.90
2022-11-28T08:51:38.556Z,4.80
2022-11-28T08:54:06.093Z,4.60
2022-11-28T08:56:33.011Z,4.70
2022-11-28T08:59:00.482Z,4.80
2022-11-28T09:01:28.606Z,4.90
2022-11-28T09:03:56.889Z,5.00
2022-11-28T09:06:24.920Z,5.10
2022-11-28T09:08:52.732Z,5.10
2022-11-28T09:11:22.772Z,5.00
2022-11-28T09:13:50.667Z,5.10
2022-11-28T09:16:18.359Z,5.10
2022-11-28T09:18:45.511Z,5.10
2022-11-28T09:21:15.223Z,5.10
2022-11-28T09:23:44.598Z,5.30
2022-11-28T09:26:20.873Z,5.30
2022-11-28T09:28:48.589Z,5.10
2022-11-28T09:31:18.470Z,5.00
2022-11-28T09:33:48.355Z,5.20
2022-11-28T09:36:20.935Z,4.80
2022-11-28T09:38:48.700Z,5.10
2022-11-28T09:41:53.895Z,5.30
2022-11-28T09:44:53.836Z,5.40
2022-11-28T09:47:26.423Z,5.10
2022-11-28T09:50:08.511Z,5.20
2022-11-28T09:53:18.320Z,5.10
2022-11-28T09:56:09.350Z,5.10
2022-11-28T09:58:51.817Z,5.00
2022-11-28T10:01:53.020Z,5.20
2022-11-28T10:04:45.126Z,5.20
2022-11-28T10:07:20.889Z,5.40
2022-11-28T10:10:31.585Z,5.20
2022-11-28T10:14:07.061Z,5.40
2022-11-28T10:17:08.727Z,5.50
2022-11-28T10:19:59.311Z,5.70
2022-11-28T10:22:50.072Z,5.70
2022-11-28T10:25:20.138Z,5.70
2022-11-28T10:27:50.462Z,5.60
2022-11-28T10:30:33.051Z,5.80
2022-11-28T10:33:29.947Z,6.20
2022-11-28T10:36:04.399Z,6.10
2022-11-28T10:38:34.877Z,6.50
2022-11-28T10:41:23.495Z,6.50
2022-11-28T10:44:21.156Z,6.60
2022-11-28T10:47:12.121Z,6.60
2022-11-28T10:50:15.938Z,6.70
2022-11-28T10:53:16.601Z,6.70
2022-11-28T10:56:16.217Z,6.60
2022-11-28T10:58:58.584Z,6.40
2022-11-28T11:01:33.891Z,6.40
2022-11-28T11:04:01.164Z,6.60
2022-11-28T11:06:40.791Z,6.40
2022-11-28T11:09:12.274Z,6.40
2022-11-28T11:11:55.323Z,6.40
2022-11-28T11:14:42.211Z,6.60
2022-11-28T11:17:36.567Z,6.20
2022-11-28T11:20:22.747Z,6.40
2022-11-28T11:23:22.045Z,6.50
2022-11-28T11:25:56.546Z,6.40
2022-11-28T11:28:41.409Z,6.30
2022-11-28T11:31:44.763Z,6.20
2022-11-28T11:34:21.560Z,6.20
2022-11-28T11:36:50.917Z,6.10
2022-11-28T11:39:25.703Z,6.40
2022-11-28T11:42:19.005Z,6.20
2022-11-28T11:44:46.019Z,6.20
2022-11-28T11:47:13.153Z,6.50
2022-11-28T11:49:45.946Z,6.60
2022-11-28T11:52:13.190Z,6.60
2022-11-28T11:55:18.536Z,6.70
2022-11-28T11:57:53.625Z,6.50
2022-11-28T12:00:43.152Z,6.60
2022-11-28T12:03:41.647Z,6.60
2022-11-28T12:06:25.117Z,6.50
2022-11-28T12:09:01.463Z,6.50
2022-11-28T12:11:36.024Z,6.50
2022-11-28T12:14:40.771Z,6.40
2022-11-28T12:18:05.972Z,6.20
2022-11-28T12:20:50.893Z,6.20
2022-11-28T12:24:01.818Z,6.30
2022-11-28T12:26:39.673Z,6.20
2022-11-28T12:30:01.016Z,6.20
2022-11-28T12:32:57.679Z,6.30
2022-11-28T12:36:03.116Z,6.10
2022-11-28T12:38:39.453Z,6.10
2022-11-28T12:42:01.329Z,6.20
2022-11-28T12:45:05.412Z,6.10
2022-11-28T12:48:23.101Z,6.00
2022-11-28T12:51:11.248Z,6.00
2022-11-28T12:54:04.601Z,5.70
2022-11-28T12:57:05.598Z,5.70
2022-11-28T13:00:06.997Z,5.70
2022-11-28T13:03:26.551Z,5.50
2022-11-28T13:06:40.352Z,5.50
2022-11-28T13:09:29.503Z,5.50
2022-11-28T13:12:20.956Z,5.50
2022-11-28T13:15:38.365Z,5.60
2022-11-28T13:18:45.890Z,5.40
2022-11-28T13:21:48.842Z,5.30
2022-11-28T13:24:43.496Z,5.30
2022-11-28T13:27:36.350Z,5.30
2022-11-28T13:30:20.120Z,5.20
2022-11-28T13:33:03.475Z,5.30
2022-11-28T13:35:31.221Z,5.40
2022-11-28T13:41:05.803Z,5.20
2022-11-28T13:43:58.341Z,5.30
2022-11-28T13:46:41.524Z,5.10
2022-11-28T13:49:21.123Z,5.20
2022-11-28T13:51:49.339Z,5.20
2022-11-28T13:54:19.863Z,5.00
2022-11-28T13:57:11.517Z,5.10
2022-11-28T13:59:39.628Z,5.10
2022-11-28T14:02:39.597Z,5.10
2022-11-28T14:05:26.437Z,5.10
2022-11-28T14:07:56.399Z,5.00
2022-11-28T14:11:01.054Z,5.10
2022-11-28T14:13:58.315Z,5.00
2022-11-28T14:17:00.396Z,5.00
2022-11-28T14:20:17.989Z,5.00
2022-11-28T14:23:21.355Z,5.00
2022-11-28T14:25:52.487Z,4.90
2022-11-28T14:28:36.968Z,4.90
2022-11-28T14:31:30.504Z,4.90
2022-11-28T14:34:24.796Z,4.90
2022-11-28T14:37:21.278Z,5.00
2022-11-28T14:39:50.159Z,4.80
2022-11-28T14:42:43.840Z,4.80
2022-11-28T14:45:35.365Z,4.70
2022-11-28T14:48:29.118Z,4.70
2022-11-28T14:51:01.273Z,4.60
2022-11-28T14:53:48.887Z,4.80
2022-11-28T14:56:24.839Z,4.70
2022-11-28T14:58:59.036Z,4.80
2022-11-28T15:01:48.386Z,4.40
2022-11-28T15:04:36.561Z,4.60
2022-11-28T15:07:15.733Z,4.60
2022-11-28T15:10:07.778Z,4.70
2022-11-28T15:12:53.501Z,4.60
2022-11-28T15:15:22.824Z,4.20
2022-11-28T15:17:53.899Z,4.50
2022-11-28T15:20:30.840Z,4.50
2022-11-28T15:22:57.918Z,4.70
2022-11-28T15:25:29.703Z,4.50
2022-11-28T15:27:56.937Z,4.70
2022-11-28T15:30:27.019Z,4.10
2022-11-28T15:32:59.767Z,4.50
2022-11-28T15:35:28.527Z,4.30
2022-11-28T15:37:58.305Z,4.30
2022-11-28T15:40:34.702Z,4.20
2022-11-28T15:43:09.500Z,4.40
2022-11-28T15:45:42.408Z,4.10
2022-11-28T15:48:45.713Z,3.90
2022-11-28T15:51:36.900Z,4.10
2022-11-28T15:54:26.639Z,4.10
2022-11-28T15:56:58.521Z,4.00
2022-11-28T15:59:30.044Z,4.10
2022-11-28T16:02:22.789Z,3.90
2022-11-28T16:05:07.079Z,4.10
2022-11-28T16:07:40.581Z,4.30
2022-11-28T16:10:30.649Z,4.30
2022-11-28T16:13:04.836Z,4.00
2022-11-28T16:15:32.218Z,4.30
2022-11-28T16:17:59.437Z,4.00
2022-11-28T16:20:35.583Z,4.20
2022-11-28T16:23:15.268Z,4.00
2022-11-28T16:25:45.042Z,3.90
2022-11-28T16:28:40.964Z,3.70
2022-11-28T16:31:23.862Z,3.80
2022-11-28T16:33:52.223Z,4.30
2022-11-28T16:36:37.034Z,4.00
2022-11-28T16:39:17.284Z,3.90
2022-11-28T16:42:06.438Z,4.00
2022-11-28T16:44:33.907Z,4.00
2022-11-28T16:47:01.667Z,4.10
2022-11-28T16:49:39.365Z,3.60
2022-11-28T16:52:21.672Z,3.80
2022-11-28T16:54:50.029Z,3.80
2022-11-28T16:57:19.128Z,3.90
2022-11-28T16:59:48.959Z,3.80
2022-11-28T17:02:19.121Z,3.90
2022-11-28T17:04:48.722Z,4.00
2022-11-28T17:07:22.861Z,3.70
2022-11-28T17:09:51.096Z,3.90
2022-11-28T17:12:29.411Z,3.70
2022-11-28T17:14:58.373Z,3.70
2022-11-28T17:17:25.948Z,3.70
2022-11-28T17:19:53.127Z,3.70
2022-11-28T17:22:40.702Z,3.60
2022-11-28T17:25:20.786Z,3.60
2022-11-28T17:27:48.334Z,3.60
2022-11-28T17:30:18.578Z,3.60
2022-11-28T17:32:51.964Z,3.80
2022-11-28T17:35:24.742Z,4.10
2022-11-28T17:37:51.961Z,3.90
2022-11-28T17:40:34.687Z,4.10
2022-11-28T17:43:02.005Z,4.10
2022-11-28T17:45:34.032Z,4.20
2022-11-28T17:48:01.244Z,4.00
2022-11-28T17:50:28.657Z,3.80
2022-11-28T17:52:55.601Z,3.70
2022-11-28T17:55:22.604Z,3.90
2022-11-28T17:57:49.549Z,3.90
2022-11-28T18:00:17.161Z,3.90
2022-11-28T18:02:44.332Z,3.80
2022-11-28T18:05:12.185Z,4.00
2022-11-28T18:07:39.183Z,4.10
2022-11-28T18:10:07.386Z,4.10
2022-11-28T18:12:34.436Z,4.10
2022-11-28T18:15:01.540Z,4.30
2022-11-28T18:17:28.813Z,4.00
2022-11-28T18:19:57.644Z,4.00
2022-11-28T18:22:25.223Z,4.00
2022-11-28T18:24:52.245Z,4.20
2022-11-28T18:27:19.191Z,4.00
2022-11-28T18:29:46.374Z,3.90
2022-11-28T18:32:13.812Z,4.10
2022-11-28T18:34:40.847Z,3.90
2022-11-28T18:37:08.457Z,4.00
2022-11-28T18:39:35.487Z,4.10
2022-11-28T18:42:02.491Z,3.60
2022-11-28T18:44:29.537Z,3.70
2022-11-28T18:46:56.567Z,3.60
2022-11-28T18:49:24.639Z,3.60
2022-11-28T18:51:51.869Z,3.70
2022-11-28T18:54:21.435Z,3.80
2022-11-28T18:56:49.413Z,3.60
2022-11-28T18:59:17.680Z,3.60
2022-11-28T19:01:44.974Z,3.60
2022-11-28T19:04:15.549Z,3.60
2022-11-28T19:06:43.906Z,3.70
2022-11-28T19:09:17.100Z,3.80
2022-11-28T19:11:45.017Z,3.60
2022-11-28T19:14:20.696Z,3.70
2022-11-28T19:16:49.533Z,3.70
2022-11-28T19:19:17.577Z,3.70
2022-11-28T19:21:44.539Z,3.80
2022-11-28T19:24:13.057Z,3.90
2022-11-28T19:26:40.248Z,4.00
2022-11-28T19:29:08.171Z,3.90
2022-11-28T19:31:37.454Z,3.80
2022-11-28T19:34:10.672Z,3.90
2022-11-28T19:36:42.393Z,3.80
2022-11-28T19:39:22.332Z,3.50
2022-11-28T19:41:51.928Z,3.70
2022-11-28T19:44:24.367Z,3.70
2022-11-28T19:46:52.823Z,3.70
2022-11-28T19:49:25.026Z,3.60
2022-11-28T19:51:54.336Z,3.50
2022-11-28T19:54:27.268Z,3.50
2022-11-28T19:56:54.381Z,3.50
2022-11-28T19:59:21.465Z,3.50
2022-11-28T20:01:50.064Z,3.60
2022-11-28T20:04:17.190Z,3.50
2022-11-28T20:06:45.436Z,3.50
2022-11-28T20:09:13.917Z,3.50
2022-11-28T20:11:42.605Z,3.60
2022-11-28T20:14:19.381Z,3.60
2022-11-28T20:16:49.077Z,3.70
2022-11-28T20:19:17.845Z,3.50
2022-11-28T20:21:47.863Z,3.50
2022-11-28T20:24:17.922Z,3.60
2022-11-28T20:26:45.108Z,3.50
2022-11-28T20:29:18.293Z,3.60
2022-11-28T20:31:47.590Z,3.60
2022-11-28T20:34:17.294Z,3.80
2022-11-28T20:36:44.753Z,3.60
2022-11-28T20:39:12.550Z,3.70
2022-11-28T20:41:39.871Z,3.70
2022-11-28T20:44:07.256Z,3.40
2022-11-28T20:46:35.692Z,3.70
2022-11-28T20:49:06.747Z,3.70
2022-11-28T20:51:35.982Z,3.90
2022-11-28T20:54:06.531Z,3.70
2022-11-28T20:57:04.941Z,3.80
2022-11-28T20:59:26.934Z,3.60
2022-11-28T21:01:54.412Z,3.60
2022-11-28T21:04:21.486Z,3.60
2022-11-28T21:06:49.427Z,3.60
2022-11-28T21:09:20.162Z,3.70
2022-11-28T21:11:58.634Z,3.70
2022-11-28T21:14:28.642Z,3.60
2022-11-28T21:16:56.994Z,3.70
2022-11-28T21:19:24.105Z,3.60
2022-11-28T21:21:51.250Z,3.70
2022-11-28T21:24:18.293Z,3.70
2022-11-28T21:26:51.285Z,4.00
2022-11-28T21:29:21.625Z,4.00
2022-11-28T21:31:49.028Z,4.30
2022-11-28T21:34:17.026Z,3.90
2022-11-28T21:36:44.999Z,3.80
2022-11-28T21:39:23.915Z,4.10
2022-11-28T21:41:51.299Z,3.50
2022-11-28T21:44:18.868Z,4.00
2022-11-28T21:46:46.004Z,3.70
2022-11-28T21:49:13.312Z,3.70
2022-11-28T21:51:40.888Z,3.90
2022-11-28T21:54:08.756Z,4.00
2022-11-28T21:56:36.110Z,3.90
2022-11-28T21:59:04.415Z,3.70
2022-11-28T22:01:31.594Z,3.30
2022-11-28T22:04:02.451Z,3.90
2022-11-28T22:06:30.455Z,3.60
2022-11-28T22:08:57.749Z,3.90
2022-11-28T22:11:25.402Z,3.90
2022-11-28T22:13:52.895Z,3.60
2022-11-28T22:16:27.755Z,3.80
2022-11-28T22:18:58.993Z,3.30
2022-11-28T22:21:56.598Z,3.60
2022-11-28T22:24:13.809Z,3.50
2022-11-28T22:26:40.766Z,3.40
2022-11-28T22:29:07.946Z,3.20
2022-11-28T22:31:35.072Z,3.20
2022-11-28T22:34:02.008Z,3.30
2022-11-28T22:36:29.033Z,2.90
2022-11-28T22:38:58.150Z,2.70
2022-11-28T22:41:29.254Z,2.90
2022-11-28T22:44:00.497Z,2.90
2022-11-28T22:46:29.099Z,2.90
2022-11-28T22:48:56.637Z,3.80
2022-11-28T22:51:26.444Z,3.10
2022-11-28T22:53:55.835Z,2.80
2022-11-28T22:56:22.976Z,2.70
2022-11-28T22:58:50.684Z,2.80
2022-11-28T23:01:22.328Z,2.80
2022-11-28T23:03:52.545Z,2.80
2022-11-28T23:06:23.116Z,2.80
2022-11-28T23:08:50.948Z,2.90
2022-11-28T23:11:25.075Z,2.80
2022-11-28T23:13:53.437Z,2.90
2022-11-28T23:16:28.865Z,2.90
2022-11-28T23:19:00.647Z,2.70
2022-11-28T23:21:32.962Z,2.80
2022-11-28T23:24:00.131Z,3.10
2022-11-28T23:26:30.240Z,3.20
2022-11-28T23:29:00.802Z,2.90
2022-11-28T23:31:31.193Z,3.00
2022-11-28T23:33:59.969Z,3.10
2022-11-28T23:36:35.693Z,3.00
2022-11-28T23:39:10.957Z,3.40
2022-11-28T23:41:37.879Z,3.10
2022-11-28T23:44:05.201Z,3.50
2022-11-28T23:46:32.527Z,3.20
2022-11-28T23:48:59.444Z,3.30
2022-11-28T23:51:26.881Z,3.60
2022-11-28T23:53:54.460Z,3.10
2022-11-28T23:56:28.349Z,3.30
2022-11-28T23:58:57.157Z,3.10
